Time;durP1;ratioP1;P1;durP2;ratioP2;P2;SDS_P1;SDS_P2;PMS_P1;PMS_P2;Temp;Humidity;BMP_temperature;BMP_pressure;BME280_temperature;BME280_humidity;BME280_pressure;Samples;Min_cycle;Max_cycle;Signal;HPM_P1;HPM_P2
2023/01/12 00:00:09;;;;;;;4.60;1.80;;;3.70;99.90;;;;;;4162050;28;20825;-64
2023/01/12 00:02:12;;;;;;;3.47;1.00;;;3.70;99.90;;;;;;4162100;28;20436;-65
2023/01/12 00:04:13;;;;;;;3.83;1.13;;;3.70;99.90;;;;;;4162745;28;20429;-65
2023/01/12 00:06:15;;;;;;;4.93;1.63;;;3.70;99.90;;;;;;4145182;28;20439;-64
2023/01/12 00:08:15;;;;;;;3.10;1.20;;;3.60;99.90;;;;;;4168291;28;20518;-64
2023/01/12 00:10:16;;;;;;;3.03;1.20;;;3.70;99.90;;;;;;4165868;28;20492;-65
2023/01/12 00:12:17;;;;;;;8.00;1.57;;;3.70;99.90;;;;;;4162568;28;20298;-64
2023/01/12 00:14:17;;;;;;;4.40;1.30;;;3.90;99.90;;;;;;4162594;28;20195;-64
2023/01/12 00:16:34;;;;;;;5.43;1.40;;;3.90;99.90;;;;;;4161353;28;20189;-64
2023/01/12 00:18:35;;;;;;;3.53;1.27;;;4.00;99.90;;;;;;4162531;28;20171;-64
2023/01/12 00:20:35;;;;;;;9.93;1.67;;;4.10;99.90;;;;;;4162263;28;20463;-65
2023/01/12 00:22:36;;;;;;;9.63;1.77;;;4.10;99.90;;;;;;4162196;28;20262;-65
2023/01/12 00:24:43;;;;;;;9.27;2.80;;;4.10;99.90;;;;;;4162304;28;20184;-64
2023/01/12 00:26:46;;;;;;;10.90;1.93;;;4.10;99.90;;;;;;4160163;28;20165;-62
2023/01/12 00:28:47;;;;;;;5.47;1.50;;;4.30;99.90;;;;;;4163466;28;21143;-62
2023/01/12 00:30:47;;;;;;;3.23;1.77;;;4.20;99.90;;;;;;4164940;28;20433;-63
2023/01/12 00:32:48;;;;;;;6.40;1.30;;;4.30;99.90;;;;;;4165026;28;20192;-65
2023/01/12 00:34:49;;;;;;;3.53;1.40;;;4.30;99.90;;;;;;4164971;28;20188;-64
2023/01/12 00:36:50;;;;;;;6.17;1.73;;;4.40;99.90;;;;;;4164522;28;20176;-64
2023/01/12 00:38:50;;;;;;;2.53;1.10;;;4.50;99.90;;;;;;4164936;28;20189;-64
2023/01/12 00:40:51;;;;;;;7.47;1.70;;;4.40;99.90;;;;;;4164971;28;20201;-63
2023/01/12 00:45:20;;;;;;;4.13;1.30;;;4.40;99.90;;;;;;4164783;28;20195;-64
2023/01/12 00:47:21;;;;;;;4.27;1.10;;;4.50;99.90;;;;;;4164230;28;20419;-64
2023/01/12 00:49:21;;;;;;;3.23;1.40;;;4.40;99.90;;;;;;4164612;28;20558;-63
2023/01/12 00:51:22;;;;;;;3.87;1.30;;;4.40;99.90;;;;;;4164616;28;20204;-65
2023/01/12 00:53:23;;;;;;;7.60;1.57;;;4.50;99.90;;;;;;4164959;28;20177;-64
2023/01/12 00:55:23;;;;;;;7.17;1.30;;;4.60;99.90;;;;;;4164423;28;20189;-63
2023/01/12 00:57:24;;;;;;;4.50;1.10;;;4.50;99.90;;;;;;4163953;28;20240;-64
2023/01/12 00:59:25;;;;;;;7.87;1.87;;;4.50;99.90;;;;;;4164306;28;20240;-64
2023/01/12 01:01:26;;;;;;;4.67;1.60;;;4.50;99.90;;;;;;4155619;28;20236;-63
2023/01/12 01:03:27;;;;;;;4.23;2.10;;;4.50;99.90;;;;;;4148099;28;20192;-65
2023/01/12 01:05:29;;;;;;;3.13;1.30;;;4.60;99.90;;;;;;4147817;28;20735;-63
2023/01/12 01:07:30;;;;;;;5.37;2.77;;;4.50;99.90;;;;;;4147302;28;20724;-64
2023/01/12 01:09:30;;;;;;;7.70;1.40;;;4.50;99.90;;;;;;4147933;28;20460;-65
2023/01/12 01:11:31;;;;;;;7.93;1.43;;;4.50;99.90;;;;;;4147787;28;20205;-65
2023/01/12 01:13:35;;;;;;;3.40;1.50;;;4.60;99.90;;;;;;4147714;28;20586;-65
2023/01/12 01:15:36;;;;;;;5.97;1.30;;;4.60;99.90;;;;;;4146495;28;20499;-64
2023/01/12 01:17:36;;;;;;;3.30;1.20;;;4.50;99.90;;;;;;4147236;28;20840;-63
2023/01/12 01:19:37;;;;;;;8.40;1.67;;;4.60;99.90;;;;;;4147577;28;20213;-64
2023/01/12 01:21:38;;;;;;;5.03;1.20;;;4.60;99.90;;;;;;4147503;28;20197;-63
2023/01/12 01:23:39;;;;;;;4.00;1.20;;;4.60;99.90;;;;;;4147910;28;20264;-63
2023/01/12 01:25:40;;;;;;;10.60;2.07;;;4.50;99.90;;;;;;4148004;28;20205;-63
2023/01/12 01:27:41;;;;;;;2.67;1.20;;;4.60;99.90;;;;;;4146318;28;20427;-63
2023/01/12 01:29:41;;;;;;;6.70;1.40;;;4.60;99.90;;;;;;4147683;28;20660;-64
2023/01/12 01:31:42;;;;;;;4.93;1.20;;;4.70;99.90;;;;;;4147716;28;20260;-64
2023/01/12 01:33:43;;;;;;;5.17;1.53;;;4.70;99.90;;;;;;4147642;28;20181;-63
2023/01/12 01:35:44;;;;;;;10.70;1.37;;;4.70;99.90;;;;;;4146293;28;20228;-64
2023/01/12 01:37:44;;;;;;;5.20;1.90;;;4.80;99.90;;;;;;4146717;28;20220;-64
2023/01/12 01:39:45;;;;;;;5.67;1.20;;;4.80;99.90;;;;;;4145887;28;20213;-63
2023/01/12 01:41:46;;;;;;;6.03;1.50;;;4.80;99.90;;;;;;4147485;28;20717;-64
2023/01/12 01:43:56;;;;;;;8.70;2.17;;;4.80;99.90;;;;;;4147642;28;20253;-63
2023/01/12 01:46:05;;;;;;;3.00;1.40;;;4.70;99.90;;;;;;4147517;28;20413;-63
2023/01/12 01:48:12;;;;;;;5.30;1.20;;;4.70;99.90;;;;;;4151028;28;20416;-63
2023/01/12 01:50:27;;;;;;;5.37;1.17;;;4.70;99.90;;;;;;4163507;28;20492;-64
2023/01/12 01:52:35;;;;;;;5.87;1.20;;;4.70;99.90;;;;;;4162443;28;20443;-65
2023/01/12 01:54:45;;;;;;;9.20;1.43;;;4.80;99.90;;;;;;4163451;28;20507;-64
2023/01/12 01:56:47;;;;;;;5.80;1.40;;;4.70;99.90;;;;;;4161864;28;20469;-64
2023/01/12 01:58:56;;;;;;;5.97;1.57;;;4.80;99.90;;;;;;4163919;28;20425;-64
2023/01/12 02:00:57;;;;;;;3.37;1.20;;;4.80;99.90;;;;;;4163710;28;20427;-63
2023/01/12 02:03:01;;;;;;;6.33;1.20;;;4.70;99.90;;;;;;4163712;28;20451;-64
2023/01/12 02:05:02;;;;;;;10.37;2.50;;;4.80;99.90;;;;;;4163394;28;20472;-63
2023/01/12 02:07:05;;;;;;;8.70;1.27;;;4.80;99.90;;;;;;4162291;28;20419;-63
2023/01/12 02:09:18;;;;;;;10.13;1.60;;;4.80;99.90;;;;;;4169211;28;20495;-63
2023/01/12 02:16:22;;;;;;;4.90;1.60;;;4.90;99.90;;;;;;4163592;28;20511;-64
2023/01/12 02:18:56;;;;;;;3.77;1.23;;;5.00;99.90;;;;;;4163468;28;20809;-64
2023/01/12 02:21:23;;;;;;;5.03;1.50;;;5.00;99.90;;;;;;4162063;28;20454;-64
2023/01/12 02:24:07;;;;;;;5.37;1.27;;;5.00;99.90;;;;;;4152915;28;20501;-64
2023/01/12 02:26:38;;;;;;;6.83;1.40;;;5.10;99.90;;;;;;4163457;28;20466;-64
2023/01/12 02:29:19;;;;;;;8.73;1.40;;;5.00;99.90;;;;;;4163173;28;20519;-64
2023/01/12 02:31:50;;;;;;;4.43;1.30;;;5.10;99.90;;;;;;4163060;28;20806;-64
2023/01/12 02:34:20;;;;;;;4.83;1.20;;;5.10;99.90;;;;;;4163165;28;20417;-63
2023/01/12 02:36:29;;;;;;;10.40;1.90;;;5.10;99.90;;;;;;4162663;28;20503;-62
2023/01/12 02:39:12;;;;;;;5.70;1.63;;;5.10;99.90;;;;;;4161852;28;20998;-64
2023/01/12 02:42:39;;;;;;;3.53;1.10;;;5.00;99.90;;;;;;4161858;28;20455;-64
2023/01/12 02:43:44;;;;;;;10.57;1.40;;;5.00;99.90;;;;;;4161642;28;20483;-64
2023/01/12 02:46:18;;;;;;;4.93;1.70;;;5.00;99.90;;;;;;4162841;28;20420;-63
2023/01/12 02:48:35;;;;;;;8.00;1.63;;;5.10;99.90;;;;;;4162678;28;21054;-64
2023/01/12 02:50:44;;;;;;;9.57;1.43;;;5.10;99.90;;;;;;4161096;28;20439;-64
2023/01/12 02:52:52;;;;;;;5.13;1.10;;;5.10;99.90;;;;;;4162947;28;20900;-64
2023/01/12 02:54:55;;;;;;;8.47;1.47;;;5.10;99.90;;;;;;4161645;28;20418;-64
2023/01/12 02:57:03;;;;;;;12.63;1.97;;;5.00;99.90;;;;;;4162381;28;20415;-63
2023/01/12 02:59:11;;;;;;;6.97;1.10;;;5.00;99.90;;;;;;4162459;28;20433;-64
2023/01/12 03:01:14;;;;;;;6.20;1.27;;;5.00;99.90;;;;;;4162167;28;20907;-64
2023/01/12 03:03:16;;;;;;;7.40;1.90;;;5.10;99.90;;;;;;4163167;28;20424;-64
2023/01/12 03:05:16;;;;;;;4.77;1.50;;;5.10;99.90;;;;;;4155567;28;20424;-64
2023/01/12 03:07:37;;;;;;;3.10;1.57;;;5.10;99.90;;;;;;4146274;28;20176;-62
2023/01/12 03:09:49;;;;;;;5.93;1.40;;;5.10;99.90;;;;;;4147041;28;20201;-64
2023/01/12 03:11:59;;;;;;;3.60;1.57;;;5.10;99.90;;;;;;4146941;28;20209;-63
2023/01/12 03:14:02;;;;;;;7.17;3.90;;;5.00;99.90;;;;;;4146467;28;20424;-64
2023/01/12 03:16:05;;;;;;;6.30;1.77;;;5.00;99.90;;;;;;4145147;28;20428;-63
2023/01/12 03:18:15;;;;;;;6.73;1.50;;;5.00;99.90;;;;;;4144768;28;20738;-63
2023/01/12 03:20:42;;;;;;;3.87;1.10;;;5.10;99.90;;;;;;4145099;28;20463;-64
2023/01/12 03:22:45;;;;;;;3.17;1.30;;;5.10;99.90;;;;;;4144971;28;20420;-64
2023/01/12 03:24:53;;;;;;;3.57;1.10;;;5.10;99.90;;;;;;4146282;28;20424;-64
2023/01/12 03:27:21;;;;;;;6.80;2.40;;;5.10;99.90;;;;;;4145807;28;20499;-63
2023/01/12 03:29:29;;;;;;;4.57;1.57;;;5.00;99.90;;;;;;4144642;28;20527;-63
2023/01/12 03:31:30;;;;;;;3.83;1.40;;;5.00;99.90;;;;;;4144345;28;20543;-63
2023/01/12 03:33:31;;;;;;;6.57;2.27;;;5.00;99.90;;;;;;4144690;28;20433;-64
2023/01/12 03:35:38;;;;;;;6.43;2.63;;;4.90;99.90;;;;;;4144532;28;20969;-64
2023/01/12 03:37:52;;;;;;;3.83;1.10;;;5.00;99.90;;;;;;4145300;28;20174;-64
2023/01/12 03:40:09;;;;;;;4.80;1.27;;;5.00;99.90;;;;;;4144478;28;20467;-63
2023/01/12 03:42:22;;;;;;;6.90;1.60;;;5.00;99.90;;;;;;4151680;28;20536;-64
2023/01/12 03:45:13;;;;;;;6.07;1.60;;;5.00;99.90;;;;;;4160792;28;21033;-64
2023/01/12 03:47:21;;;;;;;5.20;2.17;;;5.00;99.90;;;;;;4152594;28;20440;-62
2023/01/12 03:49:50;;;;;;;7.30;1.73;;;4.90;99.90;;;;;;4161067;28;20953;-64
2023/01/12 03:51:53;;;;;;;5.43;1.70;;;4.90;99.90;;;;;;4154568;28;20471;-62
2023/01/12 03:53:56;;;;;;;6.97;1.40;;;4.90;99.90;;;;;;4161840;28;20440;-63
2023/01/12 03:56:03;;;;;;;5.47;1.37;;;4.90;99.90;;;;;;4161217;28;20922;-64
2023/01/12 03:58:04;;;;;;;6.87;1.57;;;4.90;99.90;;;;;;4161559;28;20416;-63
2023/01/12 04:00:10;;;;;;;3.07;1.10;;;4.90;99.90;;;;;;4160847;28;20554;-63
2023/01/12 04:02:11;;;;;;;6.17;1.33;;;5.00;99.90;;;;;;4144395;28;20500;-64
2023/01/12 04:04:12;;;;;;;4.07;1.23;;;5.00;99.90;;;;;;4163059;28;20468;-64
2023/01/12 04:06:13;;;;;;;9.27;1.73;;;5.00;99.90;;;;;;4164925;28;20423;-63
2023/01/12 04:08:15;;;;;;;9.43;6.80;;;5.00;99.90;;;;;;4166035;28;20272;-65
2023/01/12 04:10:15;;;;;;;5.57;1.63;;;4.90;99.90;;;;;;4168604;28;20785;-64
2023/01/12 04:12:16;;;;;;;6.43;1.90;;;4.90;99.90;;;;;;4165846;28;20467;-64
2023/01/12 04:14:17;;;;;;;5.53;1.53;;;4.90;99.90;;;;;;4165558;28;20177;-64
2023/01/12 04:16:18;;;;;;;4.33;1.23;;;5.00;99.70;;;;;;4165162;28;20189;-64
2023/01/12 04:18:19;;;;;;;3.30;1.07;;;5.00;99.90;;;;;;4164728;28;20189;-64
2023/01/12 04:20:20;;;;;;;5.67;1.40;;;5.00;99.90;;;;;;4165127;28;20856;-64
2023/01/12 04:24:39;;;;;;;6.07;1.37;;;5.00;99.90;;;;;;4165186;28;20247;-64
2023/01/12 04:26:40;;;;;;;6.97;2.10;;;5.00;99.90;;;;;;4164542;28;20983;-64
2023/01/12 04:28:41;;;;;;;4.60;1.37;;;5.00;99.90;;;;;;4165103;28;20180;-64
2023/01/12 04:30:42;;;;;;;5.67;1.60;;;5.00;99.90;;;;;;4164911;28;20189;-63
2023/01/12 04:32:43;;;;;;;6.03;1.50;;;5.00;99.90;;;;;;4164756;28;20186;-64
2023/01/12 04:34:45;;;;;;;3.40;1.20;;;5.00;99.90;;;;;;4164735;28;20185;-64
2023/01/12 04:36:45;;;;;;;6.63;1.30;;;5.00;99.90;;;;;;4162815;28;20189;-63
2023/01/12 04:38:46;;;;;;;12.40;1.70;;;5.00;99.90;;;;;;4164685;28;20442;-64
2023/01/12 04:40:55;;;;;;;6.47;1.33;;;4.90;99.90;;;;;;4164104;28;20213;-64
2023/01/12 04:43:06;;;;;;;5.53;1.47;;;5.00;99.90;;;;;;4164250;28;20177;-64
2023/01/12 04:45:08;;;;;;;6.30;1.83;;;5.00;99.90;;;;;;4164236;28;20523;-64
2023/01/12 04:47:09;;;;;;;5.77;1.60;;;5.00;99.90;;;;;;4163244;28;20431;-64
2023/01/12 04:49:10;;;;;;;7.13;1.40;;;5.00;99.90;;;;;;4164465;28;20442;-63
2023/01/12 04:51:11;;;;;;;7.83;2.03;;;4.90;99.90;;;;;;4164333;28;20443;-64
2023/01/12 04:53:12;;;;;;;6.60;5.33;;;5.00;99.90;;;;;;4164348;28;20191;-63
2023/01/12 04:55:13;;;;;;;9.67;1.73;;;4.90;99.90;;;;;;4161567;28;20429;-64
2023/01/12 04:57:14;;;;;;;6.80;1.53;;;4.90;99.90;;;;;;4163016;28;20490;-63
2023/01/12 04:59:15;;;;;;;8.50;3.03;;;5.00;99.90;;;;;;4164326;28;20462;-63
2023/01/12 05:01:18;;;;;;;8.60;1.40;;;4.90;99.90;;;;;;4164321;28;20207;-63
2023/01/12 05:03:19;;;;;;;6.20;1.33;;;4.90;99.90;;;;;;4164383;28;20216;-64
2023/01/12 05:05:19;;;;;;;6.97;1.83;;;4.90;99.90;;;;;;4164225;28;20466;-63
2023/01/12 05:07:20;;;;;;;7.50;1.50;;;4.90;99.90;;;;;;4163727;28;20636;-63
2023/01/12 05:11:40;;;;;;;3.03;1.10;;;4.90;99.90;;;;;;4164277;28;20598;-65
2023/01/12 05:13:41;;;;;;;6.33;2.27;;;5.00;99.90;;;;;;4163487;28;20440;-63
2023/01/12 05:15:42;;;;;;;6.37;1.17;;;4.90;99.90;;;;;;4163778;28;20272;-64
2023/01/12 05:17:43;;;;;;;5.77;1.30;;;5.00;99.90;;;;;;4163394;28;20200;-64
2023/01/12 05:19:43;;;;;;;5.67;1.17;;;5.00;99.90;;;;;;4163728;28;20308;-64
2023/01/12 05:21:44;;;;;;;3.23;1.50;;;5.00;99.90;;;;;;4163987;28;20212;-64
2023/01/12 05:23:45;;;;;;;4.47;1.33;;;5.00;99.90;;;;;;4163993;28;20180;-64
2023/01/12 05:25:45;;;;;;;3.23;1.07;;;5.00;99.90;;;;;;4163820;28;20193;-65
2023/01/12 05:27:46;;;;;;;7.43;1.20;;;5.10;99.90;;;;;;4163122;28;20177;-64
2023/01/12 05:29:48;;;;;;;9.33;2.47;;;5.10;99.90;;;;;;4162475;28;20181;-64
2023/01/12 05:31:48;;;;;;;3.70;1.30;;;5.00;99.90;;;;;;4162401;28;20243;-64
2023/01/12 05:33:49;;;;;;;5.20;1.30;;;5.10;99.90;;;;;;4162259;28;20486;-64
2023/01/12 05:35:50;;;;;;;5.53;1.63;;;5.20;99.90;;;;;;4163894;28;20220;-64
2023/01/12 05:37:53;;;;;;;8.07;1.53;;;5.00;99.90;;;;;;4163163;28;20262;-64
2023/01/12 05:39:54;;;;;;;6.43;2.97;;;4.90;99.90;;;;;;4163129;28;20250;-64
2023/01/12 05:44:14;;;;;;;8.13;1.30;;;4.80;99.90;;;;;;4163338;28;20172;-64
2023/01/12 05:46:39;;;;;;;6.23;1.30;;;4.70;99.90;;;;;;4162956;28;20421;-64
2023/01/12 05:48:39;;;;;;;6.50;1.53;;;4.60;99.90;;;;;;4163072;28;20177;-64
2023/01/12 05:50:40;;;;;;;6.27;1.40;;;4.60;99.90;;;;;;4161749;28;20436;-64
2023/01/12 05:52:41;;;;;;;5.47;2.03;;;4.60;99.90;;;;;;4163104;28;20586;-64
2023/01/12 05:54:42;;;;;;;4.87;1.17;;;4.60;99.90;;;;;;4163206;28;20782;-64
2023/01/12 05:56:43;;;;;;;11.70;2.73;;;4.50;99.90;;;;;;4162362;28;20434;-65
2023/01/12 05:58:57;;;;;;;4.77;1.43;;;4.50;99.90;;;;;;4163137;28;20193;-64
2023/01/12 06:00:57;;;;;;;1.70;0.80;;;4.50;99.90;;;;;;4160496;28;20244;-64
2023/01/12 06:02:58;;;;;;;8.43;1.27;;;4.40;99.90;;;;;;4175738;28;20553;-64
2023/01/12 06:04:59;;;;;;;4.23;2.63;;;4.40;99.90;;;;;;4162640;28;20181;-63
2023/01/12 06:06:59;;;;;;;4.40;1.60;;;4.30;99.90;;;;;;4162232;28;20676;-64
2023/01/12 06:09:01;;;;;;;3.67;1.30;;;4.30;99.90;;;;;;4167139;28;20693;-63
2023/01/12 06:11:02;;;;;;;3.37;1.20;;;4.30;99.90;;;;;;4167460;28;20741;-63
2023/01/12 06:15:22;;;;;;;5.03;1.57;;;4.30;99.90;;;;;;4162906;28;21088;-64
2023/01/12 06:17:23;;;;;;;5.90;1.30;;;4.40;99.90;;;;;;4162499;28;20420;-63
2023/01/12 06:19:23;;;;;;;3.40;1.20;;;4.50;99.90;;;;;;4161852;28;20308;-64
2023/01/12 06:21:24;;;;;;;7.30;1.53;;;4.50;99.90;;;;;;4163125;28;20192;-63
2023/01/12 06:23:26;;;;;;;7.17;1.20;;;4.50;99.90;;;;;;4163090;28;20215;-64
2023/01/12 06:25:28;;;;;;;5.03;1.33;;;4.50;99.90;;;;;;4162687;28;20510;-63
2023/01/12 06:27:34;;;;;;;7.37;1.37;;;4.60;99.90;;;;;;4162281;28;20202;-64
2023/01/12 06:29:34;;;;;;;3.30;1.17;;;4.50;99.90;;;;;;4161875;28;20446;-64
2023/01/12 06:31:37;;;;;;;2.67;1.40;;;4.60;99.90;;;;;;4163342;28;20447;-63
2023/01/12 06:33:38;;;;;;;6.60;1.57;;;4.60;99.90;;;;;;4162921;28;20884;-64
2023/01/12 06:35:39;;;;;;;3.87;1.30;;;4.60;99.90;;;;;;4168080;28;20474;-63
2023/01/12 06:37:39;;;;;;;6.63;1.70;;;4.70;99.90;;;;;;4167768;28;20432;-64
2023/01/12 06:39:40;;;;;;;5.37;1.23;;;4.70;99.90;;;;;;4168673;28;20650;-63
2023/01/12 06:44:00;;;;;;;4.30;1.50;;;4.80;99.90;;;;;;4170801;28;20172;-63
2023/01/12 06:46:01;;;;;;;6.10;1.93;;;4.80;99.90;;;;;;4169782;28;20639;-64
2023/01/12 06:48:02;;;;;;;6.07;1.50;;;4.70;99.90;;;;;;4168975;28;20568;-63
2023/01/12 06:50:03;;;;;;;6.47;1.30;;;4.80;99.90;;;;;;4148675;28;20203;-63
2023/01/12 06:52:03;;;;;;;7.30;1.40;;;4.80;99.90;;;;;;4168416;28;20653;-63
2023/01/12 06:54:04;;;;;;;7.73;1.40;;;4.80;99.90;;;;;;4168034;28;20196;-64
2023/01/12 06:56:05;;;;;;;5.00;0.93;;;4.80;99.90;;;;;;4168957;28;20210;-64
2023/01/12 06:58:06;;;;;;;6.00;1.30;;;4.90;99.90;;;;;;4168115;28;20196;-63
2023/01/12 07:00:08;;;;;;;2.63;1.23;;;4.90;99.90;;;;;;4168434;28;20473;-63
2023/01/12 07:02:12;;;;;;;3.50;1.27;;;4.90;99.90;;;;;;4168892;28;20205;-63
2023/01/12 07:04:13;;;;;;;6.03;1.80;;;5.00;99.90;;;;;;4166846;28;20431;-63
2023/01/12 07:06:14;;;;;;;3.27;1.00;;;5.00;99.90;;;;;;4168091;28;20454;-62
2023/01/12 07:08:17;;;;;;;7.10;3.60;;;5.00;99.90;;;;;;4167733;28;20224;-63
2023/01/12 07:10:18;;;;;;;5.93;1.87;;;5.00;99.90;;;;;;4167975;28;20582;-64
2023/01/12 07:12:19;;;;;;;5.83;4.90;;;5.00;99.90;;;;;;4167949;28;20473;-64
2023/01/12 07:14:20;;;;;;;4.13;1.63;;;4.90;99.90;;;;;;4168402;28;20184;-64
2023/01/12 07:16:20;;;;;;;5.77;1.80;;;5.00;99.90;;;;;;4167557;28;20694;-62
2023/01/12 07:18:21;;;;;;;3.40;1.53;;;5.00;99.90;;;;;;4167297;28;20687;-64
2023/01/12 07:20:22;;;;;;;7.83;1.50;;;5.10;99.90;;;;;;4168296;28;20216;-63
2023/01/12 07:22:24;;;;;;;4.97;1.60;;;5.00;99.90;;;;;;4166655;28;20738;-63
2023/01/12 07:24:25;;;;;;;4.33;1.60;;;5.00;99.90;;;;;;4167364;28;20427;-64
2023/01/12 07:26:26;;;;;;;6.47;2.00;;;5.00;99.90;;;;;;4166539;28;20459;-63
2023/01/12 07:28:26;;;;;;;7.87;1.80;;;5.00;99.90;;;;;;4168030;28;20176;-64
2023/01/12 07:30:27;;;;;;;6.67;1.70;;;5.00;99.90;;;;;;4167906;28;20601;-65
2023/01/12 07:32:28;;;;;;;5.33;1.20;;;5.10;99.90;;;;;;4167799;28;20212;-64
2023/01/12 07:34:29;;;;;;;7.40;2.63;;;5.10;99.90;;;;;;4167890;28;20197;-64
2023/01/12 07:36:29;;;;;;;7.30;1.70;;;5.10;99.90;;;;;;4167092;28;20930;-64
2023/01/12 07:38:31;;;;;;;4.33;1.10;;;5.10;99.90;;;;;;4170000;28;20594;-64
2023/01/12 07:40:32;;;;;;;4.30;1.67;;;5.20;99.90;;;;;;4171166;28;20216;-64
2023/01/12 07:42:33;;;;;;;3.37;1.20;;;5.20;99.90;;;;;;4170639;28;20825;-64
2023/01/12 07:44:33;;;;;;;2.43;1.50;;;5.20;99.90;;;;;;4171434;28;20459;-64
2023/01/12 07:46:34;;;;;;;3.63;2.53;;;5.20;99.90;;;;;;4170483;28;20212;-64
2023/01/12 07:48:35;;;;;;;2.60;1.40;;;5.20;99.90;;;;;;4170901;28;20184;-64
2023/01/12 07:50:36;;;;;;;3.33;1.57;;;5.20;99.90;;;;;;4171635;28;20651;-63
2023/01/12 07:52:37;;;;;;;8.07;1.30;;;5.20;99.90;;;;;;4170214;28;20189;-63
2023/01/12 07:54:38;;;;;;;3.03;1.10;;;5.20;99.90;;;;;;4166908;28;20865;-64
2023/01/12 07:56:38;;;;;;;4.13;2.73;;;5.20;99.90;;;;;;4163031;28;20224;-65
2023/01/12 07:58:39;;;;;;;3.90;3.20;;;5.30;99.90;;;;;;4164797;28;20184;-64
2023/01/12 08:00:40;;;;;;;4.03;1.47;;;5.30;99.90;;;;;;4164900;28;20234;-65
2023/01/12 08:02:40;;;;;;;8.07;1.70;;;5.30;99.90;;;;;;4163859;28;20188;-65
2023/01/12 08:04:45;;;;;;;3.77;0.77;;;5.30;99.90;;;;;;4164986;28;20189;-65
2023/01/12 08:06:46;;;;;;;4.23;1.17;;;5.30;99.90;;;;;;4164094;28;20215;-64
2023/01/12 08:08:46;;;;;;;4.70;3.97;;;5.30;99.90;;;;;;4165390;28;20181;-64
2023/01/12 08:10:49;;;;;;;4.73;1.13;;;5.30;99.90;;;;;;4166142;28;20184;-64
2023/01/12 08:12:50;;;;;;;3.13;1.40;;;5.30;99.90;;;;;;4165220;28;20197;-65
2023/01/12 08:14:51;;;;;;;4.03;1.63;;;5.30;99.90;;;;;;4165543;28;20543;-65
2023/01/12 08:16:54;;;;;;;3.37;1.10;;;5.30;99.90;;;;;;4164195;28;20416;-63
2023/01/12 08:18:57;;;;;;;3.83;2.90;;;5.40;99.90;;;;;;4163383;28;20190;-65
2023/01/12 08:21:03;;;;;;;3.77;1.00;;;5.40;99.90;;;;;;4164372;28;20244;-64
2023/01/12 08:23:14;;;;;;;4.13;0.90;;;5.40;99.90;;;;;;4164660;28;20447;-63
2023/01/12 08:25:21;;;;;;;3.80;3.43;;;5.50;99.90;;;;;;4164938;28;20169;-65
2023/01/12 08:27:24;;;;;;;3.47;1.20;;;5.50;99.90;;;;;;4162674;28;20498;-65
2023/01/12 08:29:47;;;;;;;3.87;1.70;;;5.50;99.90;;;;;;4167192;28;20211;-63
2023/01/12 08:31:48;;;;;;;3.47;1.30;;;5.60;99.90;;;;;;4164965;28;20951;-62
2023/01/12 08:33:52;;;;;;;2.90;1.57;;;5.60;99.90;;;;;;4146901;28;20468;-66
2023/01/12 08:35:53;;;;;;;3.40;1.00;;;5.60;99.90;;;;;;4163190;28;20209;-65
2023/01/12 08:37:55;;;;;;;2.30;1.00;;;5.60;99.90;;;;;;4163837;28;20741;-63
2023/01/12 08:39:56;;;;;;;7.00;1.27;;;5.60;99.90;;;;;;4163250;28;20224;-65
2023/01/12 08:41:57;;;;;;;4.77;1.37;;;5.70;99.90;;;;;;4164395;28;20232;-64
2023/01/12 08:44:09;;;;;;;3.83;1.00;;;5.70;99.90;;;;;;4169870;28;20211;-65
2023/01/12 08:46:10;;;;;;;5.67;2.17;;;5.70;99.90;;;;;;4180340;28;20164;-64
2023/01/12 08:48:11;;;;;;;5.17;1.10;;;5.80;99.90;;;;;;4174295;28;20265;-64
2023/01/12 08:50:12;;;;;;;5.80;1.33;;;5.80;99.90;;;;;;4147270;28;20188;-65
2023/01/12 08:52:14;;;;;;;3.83;1.00;;;5.80;99.90;;;;;;4146889;28;20209;-64
2023/01/12 08:54:17;;;;;;;3.97;1.93;;;5.90;99.90;;;;;;4147023;28;20264;-65
2023/01/12 08:56:18;;;;;;;4.97;1.40;;;5.90;99.90;;;;;;4146067;28;20187;-65
2023/01/12 08:58:19;;;;;;;1.73;1.23;;;5.90;99.90;;;;;;4147324;28;20664;-65
2023/01/12 09:00:20;;;;;;;3.07;1.47;;;5.90;99.90;;;;;;4147687;28;20206;-62
2023/01/12 09:02:20;;;;;;;3.83;1.10;;;5.80;99.90;;;;;;4147881;28;20657;-63
2023/01/12 09:04:21;;;;;;;6.40;1.23;;;5.90;99.90;;;;;;4147471;28;20273;-62
2023/01/12 09:06:34;;;;;;;2.30;1.93;;;5.90;99.90;;;;;;4145567;28;20853;-63
2023/01/12 09:08:34;;;;;;;4.00;1.20;;;5.90;99.90;;;;;;4147414;28;20703;-63
2023/01/12 09:10:35;;;;;;;8.20;1.50;;;5.90;99.90;;;;;;4147316;28;20178;-64
2023/01/12 09:12:35;;;;;;;5.10;1.60;;;6.10;99.90;;;;;;4147452;28;20201;-63
2023/01/12 09:14:37;;;;;;;3.07;2.10;;;6.10;99.90;;;;;;4146107;28;20178;-63
2023/01/12 09:16:38;;;;;;;2.13;0.97;;;6.10;99.60;;;;;;4146625;28;20206;-63
2023/01/12 09:18:40;;;;;;;3.27;1.60;;;6.20;99.80;;;;;;4147377;28;20217;-64
2023/01/12 09:20:41;;;;;;;3.27;0.90;;;6.30;99.80;;;;;;4147017;28;20217;-63
2023/01/12 09:22:41;;;;;;;2.77;0.80;;;6.40;99.60;;;;;;4147085;28;20204;-63
2023/01/12 09:24:42;;;;;;;4.73;1.57;;;6.40;99.10;;;;;;4147201;28;20173;-63
2023/01/12 09:26:45;;;;;;;2.50;0.80;;;6.40;99.20;;;;;;4146522;28;20283;-63
2023/01/12 09:28:46;;;;;;;3.30;0.63;;;6.40;99.30;;;;;;4156025;28;20298;-62
2023/01/12 09:30:47;;;;;;;3.53;0.90;;;6.40;99.50;;;;;;4161884;28;20181;-63
2023/01/12 09:32:47;;;;;;;2.00;1.00;;;6.40;99.70;;;;;;4163346;28;20207;-63
2023/01/12 09:34:48;;;;;;;2.20;1.27;;;6.40;99.40;;;;;;4163387;28;20196;-63
2023/01/12 09:36:51;;;;;;;1.70;1.60;;;6.50;98.40;;;;;;4162692;28;20607;-63
2023/01/12 09:38:52;;;;;;;2.57;0.60;;;6.60;98.60;;;;;;4163288;28;20180;-63
2023/01/12 09:40:55;;;;;;;1.37;0.60;;;6.60;99.10;;;;;;4162466;28;20247;-63
2023/01/12 09:47:46;;;;;;;1.00;0.90;;;6.50;98.60;;;;;;4161877;28;20252;-65
2023/01/12 09:49:56;;;;;;;3.40;1.83;;;6.50;98.70;;;;;;4162774;28;20216;-65
2023/01/12 09:52:25;;;;;;;1.40;1.30;;;6.50;99.00;;;;;;4174630;28;20300;-66
2023/01/12 09:54:26;;;;;;;2.17;1.37;;;6.50;98.80;;;;;;4163422;28;20305;-66
2023/01/12 09:56:52;;;;;;;1.93;1.43;;;6.50;99.50;;;;;;4178217;28;20184;-64
2023/01/12 09:59:07;;;;;;;0.50;0.50;;;6.50;98.90;;;;;;4164549;28;20249;-66
2023/01/12 10:01:12;;;;;;;2.33;1.00;;;6.50;99.00;;;;;;4174253;28;20859;-66
2023/01/12 10:03:24;;;;;;;1.40;0.80;;;6.50;99.20;;;;;;4167198;28;20183;-65
2023/01/12 10:05:47;;;;;;;1.37;0.80;;;6.50;99.20;;;;;;4171916;28;20287;-67
2023/01/12 10:07:53;;;;;;;1.73;0.70;;;6.50;99.20;;;;;;4171231;28;20183;-65
2023/01/12 10:09:53;;;;;;;0.77;0.70;;;6.50;98.90;;;;;;4168990;28;20180;-67
2023/01/12 10:12:05;;;;;;;1.73;1.20;;;6.50;99.20;;;;;;4179412;28;20231;-65
2023/01/12 10:14:43;;;;;;;1.03;0.93;;;6.50;99.40;;;;;;4166541;28;20181;-67
2023/01/12 10:16:56;;;;;;;1.30;0.80;;;6.50;99.00;;;;;;4161050;28;20203;-70
2023/01/12 10:19:02;;;;;;;2.13;1.40;;;6.50;99.20;;;;;;4175693;28;20295;-69
2023/01/12 10:21:09;;;;;;;3.43;3.13;;;6.40;98.60;;;;;;4148839;28;20208;-67
2023/01/12 10:23:23;;;;;;;4.57;1.87;;;6.50;99.00;;;;;;4173616;28;20655;-67
2023/01/12 10:25:38;;;;;;;1.43;0.87;;;6.50;99.10;;;;;;4169487;28;20172;-67
2023/01/12 10:27:43;;;;;;;5.77;5.23;;;6.60;99.00;;;;;;4167677;28;20185;-67
2023/01/12 10:29:47;;;;;;;2.50;2.13;;;6.60;98.60;;;;;;4170926;28;20721;-67
2023/01/12 10:31:47;;;;;;;1.33;0.70;;;6.50;98.90;;;;;;4168427;28;20204;-67
2023/01/12 10:34:10;;;;;;;2.37;0.70;;;6.60;99.10;;;;;;4172858;28;20756;-66
2023/01/12 10:36:18;;;;;;;1.77;0.80;;;6.60;99.20;;;;;;4177293;28;20180;-66
2023/01/12 10:38:31;;;;;;;0.60;0.50;;;6.60;98.60;;;;;;4163361;28;20220;-65
2023/01/12 10:40:33;;;;;;;5.33;4.97;;;6.70;98.40;;;;;;4144426;28;20209;-65
2023/01/12 10:45:13;;;;;;;0.97;0.80;;;6.80;98.70;;;;;;4151884;28;20171;-66
2023/01/12 10:47:17;;;;;;;2.53;0.70;;;6.80;98.80;;;;;;4172132;28;20200;-66
2023/01/12 10:49:22;;;;;;;6.27;5.93;;;6.70;99.20;;;;;;4168628;28;20321;-64
2023/01/12 10:51:32;;;;;;;2.33;0.60;;;6.60;99.20;;;;;;4170429;28;20208;-65
2023/01/12 10:53:44;;;;;;;0.70;0.70;;;6.60;99.70;;;;;;4169309;28;20174;-65
2023/01/12 10:55:46;;;;;;;2.67;1.53;;;6.60;99.90;;;;;;4167102;28;20652;-64
2023/01/12 10:57:48;;;;;;;3.80;2.20;;;6.50;99.90;;;;;;4171518;28;20177;-65
2023/01/12 10:59:56;;;;;;;1.53;0.70;;;6.50;99.90;;;;;;4167708;28;20288;-64
2023/01/12 11:02:10;;;;;;;1.30;0.50;;;6.50;99.90;;;;;;4172297;28;20611;-64
2023/01/12 11:04:20;;;;;;;3.10;3.00;;;6.60;99.90;;;;;;4164926;28;20188;-65
2023/01/12 11:06:30;;;;;;;1.43;0.90;;;6.40;99.90;;;;;;4158929;28;20184;-63
2023/01/12 11:08:31;;;;;;;1.07;0.50;;;6.30;99.90;;;;;;4160970;28;20180;-63
2023/01/12 11:10:37;;;;;;;1.13;0.90;;;6.30;99.90;;;;;;4178484;28;20658;-63
2023/01/12 11:12:39;;;;;;;3.87;1.70;;;6.30;99.90;;;;;;4160854;28;20185;-63
2023/01/12 11:14:41;;;;;;;2.63;1.10;;;6.30;99.90;;;;;;4176688;28;20231;-63
2023/01/12 11:16:50;;;;;;;2.87;0.77;;;6.40;99.90;;;;;;4162363;28;20188;-65
2023/01/12 11:19:09;;;;;;;2.30;1.37;;;6.40;99.90;;;;;;4174387;28;20215;-63
2023/01/12 11:21:14;;;;;;;1.00;0.70;;;6.40;99.90;;;;;;4166829;28;20307;-64
2023/01/12 11:23:29;;;;;;;1.30;1.13;;;6.40;99.90;;;;;;4170861;28;20646;-65
2023/01/12 11:25:39;;;;;;;1.10;1.00;;;6.50;99.90;;;;;;4168430;28;20179;-65